Time;durP1;ratioP1;P1;durP2;ratioP2;P2;SDS_P1;SDS_P2;PMS_P1;PMS_P2;Temp;Humidity;BMP_temperature;BMP_pressure;BME280_temperature;BME280_humidity;BME280_pressure;Samples;Min_cycle;Max_cycle;Signal;HPM_P1;HPM_P2
2024/01/14 00:04:40;;;;;;;7.53;4.50;;;;;;;1.28;71.07;99172.66;32136085;27;41547;-63
2024/01/14 00:19:41;;;;;;;6.93;4.30;;;;;;;1.23;71.59;99154.72;32135036;27;20510;-63
2024/01/14 00:34:41;;;;;;;10.13;4.95;;;;;;;1.34;71.76;99156.38;32134170;27;20039;-61
2024/01/14 00:49:41;;;;;;;6.07;3.80;;;;;;;1.42;71.86;99132.06;32131636;27;20051;-64
2024/01/14 01:04:43;;;;;;;6.90;3.72;;;;;;;1.44;72.11;99123.09;32131678;27;20051;-60
2024/01/14 01:19:43;;;;;;;7.60;4.75;;;;;;;1.40;71.73;99100.72;32129947;27;28971;-62
2024/01/14 01:34:44;;;;;;;6.88;4.53;;;;;;;1.41;71.83;99073.50;32147745;27;35647;-60
2024/01/14 01:49:44;;;;;;;5.57;3.10;;;;;;;1.50;71.75;99032.47;32151121;27;20042;-61
2024/01/14 02:04:45;;;;;;;4.55;2.90;;;;;;;1.49;71.27;99015.06;32150611;27;20107;-59
2024/01/14 02:19:45;;;;;;;6.22;3.38;;;;;;;1.45;71.27;99000.56;32147286;27;20043;-59
2024/01/14 02:34:47;;;;;;;5.10;3.10;;;;;;;1.24;72.21;98988.44;32143974;27;40285;-61
2024/01/14 02:49:47;;;;;;;5.88;3.60;;;;;;;1.02;72.46;98965.94;32144140;27;20080;-63
2024/01/14 03:04:48;;;;;;;6.15;3.22;;;;;;;0.92;72.94;98962.53;32142310;27;41409;-63
2024/01/14 03:19:48;;;;;;;6.65;2.03;;;;;;;0.88;73.64;98971.63;32140847;27;36872;-59
2024/01/14 03:34:48;;;;;;;3.65;2.20;;;;;;;0.93;74.19;98959.75;32139875;27;41754;-60
2024/01/14 03:49:48;;;;;;;4.90;2.33;;;;;;;1.10;74.01;98957.41;32135111;27;40499;-62
2024/01/14 04:04:49;;;;;;;5.20;2.47;;;;;;;1.22;74.26;98939.69;32135841;27;41685;-63
2024/01/14 04:19:49;;;;;;;4.80;2.72;;;;;;;1.31;74.15;98933.59;32134767;27;20031;-63
2024/01/14 04:34:49;;;;;;;3.83;2.42;;;;;;;1.33;74.11;98922.00;32131978;27;40504;-62
2024/01/14 04:49:49;;;;;;;4.70;2.70;;;;;;;1.35;73.83;98903.47;32129091;27;41695;-60
2024/01/14 05:04:50;;;;;;;4.13;2.50;;;;;;;1.29;73.91;98898.81;32142573;27;40536;-61
2024/01/14 05:19:51;;;;;;;3.58;2.22;;;;;;;1.07;74.41;98898.19;32152296;27;41586;-62
2024/01/14 05:34:51;;;;;;;4.97;2.92;;;;;;;1.06;74.79;98885.22;32151373;27;20562;-63
2024/01/14 05:49:51;;;;;;;4.15;2.28;;;;;;;1.13;74.79;98894.16;32146158;27;43371;-63
2024/01/14 06:04:52;;;;;;;4.82;2.75;;;;;;;1.08;74.78;98878.84;32145554;27;41022;-62
2024/01/14 06:19:52;;;;;;;5.35;2.90;;;;;;;0.97;75.54;98879.84;32143329;27;43043;-59
2024/01/14 06:34:52;;;;;;;5.55;2.70;;;;;;;0.89;75.42;98874.47;32144579;27;20035;-63
2024/01/14 06:49:54;;;;;;;5.90;2.65;;;;;;;0.95;75.71;98868.66;32139121;27;41764;-60
2024/01/14 07:04:55;;;;;;;4.47;2.78;;;;;;;0.92;75.40;98889.91;32140828;27;20619;-63
2024/01/14 07:19:56;;;;;;;4.05;2.50;;;;;;;1.07;75.63;98910.47;32140563;27;20031;-63
2024/01/14 07:34:58;;;;;;;4.75;2.90;;;;;;;1.22;75.37;98916.94;32138055;27;20030;-62
2024/01/14 07:49:58;;;;;;;3.33;2.30;;;;;;;1.30;74.96;98924.91;32135206;27;20043;-60
2024/01/14 08:04:58;;;;;;;6.72;3.35;;;;;;;1.28;75.00;98955.69;32133596;27;43006;-63
2024/01/14 08:19:58;;;;;;;6.47;3.25;;;;;;;1.44;74.66;98928.06;32132624;27;22030;-60
2024/01/14 08:34:59;;;;;;;6.07;3.33;;;;;;;1.77;74.50;98939.81;32129416;27;41625;-63
2024/01/14 08:49:59;;;;;;;5.93;2.83;;;;;;;1.87;73.88;98958.16;32129070;27;20034;-63
2024/01/14 09:04:59;;;;;;;7.18;2.85;;;;;;;1.81;73.58;98967.44;32128452;27;20035;-62
2024/01/14 09:20:00;;;;;;;5.00;2.83;;;;;;;1.98;73.39;98970.28;32126335;27;41016;-64
2024/01/14 09:35:00;;;;;;;6.40;2.90;;;;;;;2.44;73.38;98980.84;32125573;27;20577;-60
2024/01/14 09:50:00;;;;;;;5.18;2.97;;;;;;;2.29;73.22;98976.06;32134526;27;42796;-61
2024/01/14 10:05:01;;;;;;;5.03;3.67;;;;;;;2.64;72.74;98961.34;32146347;27;20026;-60
2024/01/14 10:20:01;;;;;;;3.97;3.03;;;;;;;2.81;72.05;98946.53;32144915;27;27708;-62
2024/01/14 10:35:13;;;;;;;5.85;3.35;;;;;;;3.75;70.43;98912.59;32142658;27;20023;-61
2024/01/14 10:50:16;;;;;;;5.93;3.17;;;;;;;3.54;69.80;98905.94;32140318;27;20046;-60
2024/01/14 11:05:18;;;;;;;5.18;3.05;;;;;;;10.67;66.53;98894.84;32119906;27;96544;-59
2024/01/14 11:20:23;;;;;;;5.50;2.70;;;;;;;9.44;57.09;98898.19;32137499;27;20272;-59
2024/01/14 11:35:33;;;;;;;4.45;2.53;;;;;;;4.80;63.13;98887.63;32136887;27;20491;-62
2024/01/14 11:50:35;;;;;;;5.78;2.78;;;;;;;3.49;65.94;98875.78;32133359;27;20409;-62
2024/01/14 12:05:36;;;;;;;4.68;2.60;;;;;;;5.97;66.13;98861.59;32133433;27;20456;-61
2024/01/14 12:20:36;;;;;;;4.93;3.28;;;;;;;4.47;64.95;98864.72;32132690;27;20041;-63
2024/01/14 12:35:38;;;;;;;4.57;2.42;;;;;;;3.75;64.96;98843.31;32130110;27;34418;-64
2024/01/14 12:50:38;;;;;;;4.55;2.05;;;;;;;3.27;65.06;98811.31;32130438;27;20058;-62
2024/01/14 13:05:39;;;;;;;3.70;1.70;;;;;;;5.31;62.42;98840.72;32129326;27;20045;-61
2024/01/14 13:20:39;;;;;;;3.75;1.88;;;;;;;4.42;63.65;98848.56;32131059;27;20083;-61
2024/01/14 13:35:40;;;;;;;7.38;3.25;;;;;;;7.26;57.76;98815.94;32149071;27;20054;-62
2024/01/14 13:50:41;;;;;;;4.03;2.30;;;;;;;3.99;62.31;98838.09;32146785;27;35834;-60
2024/01/14 14:05:41;;;;;;;5.47;2.70;;;;;;;3.14;63.47;98830.19;32145863;27;20035;-61
2024/01/14 14:20:41;;;;;;;6.38;2.60;;;;;;;2.50;64.96;98828.59;32145384;27;20062;-62
2024/01/14 14:35:42;;;;;;;5.68;2.58;;;;;;;1.90;66.61;98841.47;32142799;27;20023;-63
2024/01/14 14:50:42;;;;;;;5.78;3.75;;;;;;;1.73;67.43;98812.41;32139792;27;42627;-61
2024/01/14 15:05:42;;;;;;;5.57;3.78;;;;;;;1.60;68.69;98811.94;32139399;27;20026;-63
2024/01/14 15:20:43;;;;;;;9.45;5.32;;;;;;;1.50;68.10;98802.34;32138104;27;41588;-61
2024/01/14 15:35:43;;;;;;;8.23;3.97;;;;;;;1.43;68.81;98795.19;32135108;27;43370;-63
2024/01/14 15:50:43;;;;;;;6.75;3.47;;;;;;;1.35;68.92;98767.88;32132550;27;40840;-59
2024/01/14 16:05:44;;;;;;;8.27;4.10;;;;;;;1.41;69.33;98776.13;32134369;27;20037;-59
2024/01/14 16:20:44;;;;;;;11.00;5.53;;;;;;;1.41;69.40;98773.50;32134553;27;20121;-60
2024/01/14 16:35:44;;;;;;;7.40;4.30;;;;;;;1.40;69.27;98756.13;32129838;27;43022;-60
2024/01/14 16:50:47;;;;;;;9.35;3.80;;;;;;;1.43;69.14;98745.31;32126260;27;41679;-61
2024/01/14 17:05:47;;;;;;;6.95;3.80;;;;;;;1.42;68.96;98728.75;32126509;27;20023;-60
2024/01/14 17:20:47;;;;;;;5.68;3.70;;;;;;;1.42;69.33;98725.28;32125622;27;40644;-59
2024/01/14 17:35:48;;;;;;;8.73;3.28;;;;;;;1.38;69.04;98692.44;32127076;27;20573;-59
2024/01/14 17:50:48;;;;;;;7.97;3.60;;;;;;;1.36;69.08;98671.63;32125606;27;27341;-61
2024/01/14 18:05:48;;;;;;;6.22;3.67;;;;;;;1.38;69.32;98646.06;32124056;27;20098;-61
2024/01/14 18:20:49;;;;;;;7.07;3.67;;;;;;;1.32;69.47;98628.28;32144736;27;43028;-59
2024/01/14 18:35:49;;;;;;;5.47;2.92;;;;;;;1.34;69.52;98621.91;32142230;27;41456;-62
2024/01/14 18:50:50;;;;;;;6.78;3.28;;;;;;;1.43;69.04;98611.50;32138494;27;42688;-61
2024/01/14 19:05:50;;;;;;;9.32;4.88;;;;;;;1.33;68.86;98594.00;32140395;27;20031;-63
2024/01/14 19:20:51;;;;;;;9.68;4.70;;;;;;;1.21;68.73;98583.91;32088933;27;41508;-64
2024/01/14 19:35:51;;;;;;;15.23;5.93;;;;;;;1.12;68.84;98573.34;31989427;27;20062;-63
2024/01/14 19:50:52;;;;;;;9.75;5.90;;;;;;;1.08;68.74;98556.25;32101886;27;39473;-60
2024/01/14 20:05:52;;;;;;;11.38;5.78;;;;;;;1.03;68.75;98539.31;32079822;27;42879;-60
2024/01/14 20:20:52;;;;;;;8.23;4.38;;;;;;;1.06;68.58;98512.78;32053926;27;20064;-62
2024/01/14 20:35:52;;;;;;;9.32;5.15;;;;;;;1.01;68.17;98481.75;32101082;27;22644;-61
2024/01/14 20:50:53;;;;;;;12.77;6.53;;;;;;;1.08;68.28;98463.63;32123015;27;42870;-61
2024/01/14 21:05:53;;;;;;;11.18;4.97;;;;;;;0.93;67.90;98456.31;32101660;27;45364;-62
2024/01/14 21:20:54;;;;;;;10.65;5.82;;;;;;;0.61;69.30;98452.41;32120338;27;20075;-64
2024/01/14 21:35:54;;;;;;;10.70;5.95;;;;;;;0.59;69.55;98422.06;32115412;27;20034;-62
2024/01/14 21:50:55;;;;;;;11.20;5.65;;;;;;;0.60;69.73;98411.47;32116186;27;20031;-61
2024/01/14 22:05:56;;;;;;;12.40;6.47;;;;;;;0.61;69.76;98392.13;32140981;27;20033;-64
2024/01/14 22:20:56;;;;;;;12.68;5.10;;;;;;;0.67;70.18;98383.69;32137121;27;20039;-61
2024/01/14 22:35:56;;;;;;;9.02;5.72;;;;;;;0.80;70.03;98372.78;32137097;27;40632;-60
2024/01/14 22:50:57;;;;;;;8.50;4.95;;;;;;;0.80;69.70;98341.34;32137862;27;20495;-63
2024/01/14 23:05:57;;;;;;;8.40;5.22;;;;;;;0.80;69.59;98322.16;32108460;27;34298;-62
2024/01/14 23:20:59;;;;;;;6.20;3.67;;;;;;;0.85;69.23;98312.06;32134114;27;20077;-61
2024/01/14 23:35:59;;;;;;;8.63;4.63;;;;;;;0.60;69.22;98272.59;32130746;27;20038;-64
2024/01/14 23:50:59;;;;;;;10.07;4.50;;;;;;;0.40;70.59;98255.41;32083316;27;37040;-66
